sensor_id;sensor_type;location;lat;lon;timestamp;P1;durP1;ratioP1;P2;durP2;ratioP2
41221;SDS011;26952;42.884;23.918;2023-04-25T00:01:20;26.58;;;25.02;;
41221;SDS011;26952;42.884;23.918;2023-04-25T00:03:46;25.13;;;23.63;;
41221;SDS011;26952;42.884;23.918;2023-04-25T00:06:12;27.23;;;25.77;;
41221;SDS011;26952;42.884;23.918;2023-04-25T00:08:38;27.00;;;25.48;;
41221;SDS011;26952;42.884;23.918;2023-04-25T00:11:04;27.83;;;26.42;;
41221;SDS011;26952;42.884;23.918;2023-04-25T00:13:30;28.30;;;26.80;;
41221;SDS011;26952;42.884;23.918;2023-04-25T00:15:55;31.20;;;28.90;;
41221;SDS011;26952;42.884;23.918;2023-04-25T00:18:25;30.15;;;28.65;;
41221;SDS011;26952;42.884;23.918;2023-04-25T00:20:53;29.38;;;27.88;;
41221;SDS011;26952;42.884;23.918;2023-04-25T00:23:20;30.27;;;28.52;;
41221;SDS011;26952;42.884;23.918;2023-04-25T00:25:46;29.73;;;28.23;;
41221;SDS011;26952;42.884;23.918;2023-04-25T00:28:12;33.95;;;32.25;;
41221;SDS011;26952;42.884;23.918;2023-04-25T00:30:39;31.80;;;29.50;;
41221;SDS011;26952;42.884;23.918;2023-04-25T00:33:05;35.65;;;33.75;;
41221;SDS011;26952;42.884;23.918;2023-04-25T00:35:30;33.80;;;31.98;;
41221;SDS011;26952;42.884;23.918;2023-04-25T00:37:56;34.10;;;32.08;;
41221;SDS011;26952;42.884;23.918;2023-04-25T00:40:22;37.28;;;35.28;;
41221;SDS011;26952;42.884;23.918;2023-04-25T00:42:47;36.83;;;34.75;;
41221;SDS011;26952;42.884;23.918;2023-04-25T00:45:14;36.53;;;34.22;;
41221;SDS011;26952;42.884;23.918;2023-04-25T00:47:40;30.55;;;28.73;;
41221;SDS011;26952;42.884;23.918;2023-04-25T00:50:07;27.73;;;26.33;;
41221;SDS011;26952;42.884;23.918;2023-04-25T00:52:33;26.00;;;24.67;;
41221;SDS011;26952;42.884;23.918;2023-04-25T00:54:58;26.13;;;24.73;;
41221;SDS011;26952;42.884;23.918;2023-04-25T00:57:24;23.35;;;22.25;;
41221;SDS011;26952;42.884;23.918;2023-04-25T00:59:51;20.30;;;19.30;;
41221;SDS011;26952;42.884;23.918;2023-04-25T01:02:17;23.40;;;22.05;;
41221;SDS011;26952;42.884;23.918;2023-04-25T01:04:43;21.33;;;20.30;;
41221;SDS011;26952;42.884;23.918;2023-04-25T01:07:09;21.17;;;20.17;;
41221;SDS011;26952;42.884;23.918;2023-04-25T01:09:35;19.30;;;18.30;;
41221;SDS011;26952;42.884;23.918;2023-04-25T01:12:00;19.27;;;18.38;;
41221;SDS011;26952;42.884;23.918;2023-04-25T01:14:26;19.80;;;18.85;;
41221;SDS011;26952;42.884;23.918;2023-04-25T01:16:52;21.92;;;20.92;;
41221;SDS011;26952;42.884;23.918;2023-04-25T01:19:18;21.25;;;20.25;;
41221;SDS011;26952;42.884;23.918;2023-04-25T01:21:44;22.83;;;21.52;;
41221;SDS011;26952;42.884;23.918;2023-04-25T01:24:10;22.10;;;21.00;;
41221;SDS011;26952;42.884;23.918;2023-04-25T01:26:36;22.02;;;20.92;;
41221;SDS011;26952;42.884;23.918;2023-04-25T01:29:03;20.80;;;19.80;;
41221;SDS011;26952;42.884;23.918;2023-04-25T01:31:29;19.70;;;18.70;;
41221;SDS011;26952;42.884;23.918;2023-04-25T01:33:56;19.10;;;18.10;;
41221;SDS011;26952;42.884;23.918;2023-04-25T01:36:21;13.75;;;12.93;;
41221;SDS011;26952;42.884;23.918;2023-04-25T01:38:47;15.45;;;14.13;;
41221;SDS011;26952;42.884;23.918;2023-04-25T01:41:13;12.75;;;12.15;;
41221;SDS011;26952;42.884;23.918;2023-04-25T01:43:39;13.55;;;12.63;;
41221;SDS011;26952;42.884;23.918;2023-04-25T01:46:05;10.07;;;9.57;;
41221;SDS011;26952;42.884;23.918;2023-04-25T01:48:31;11.10;;;10.35;;
41221;SDS011;26952;42.884;23.918;2023-04-25T01:50:56;10.85;;;10.25;;
41221;SDS011;26952;42.884;23.918;2023-04-25T01:53:22;11.23;;;10.07;;
41221;SDS011;26952;42.884;23.918;2023-04-25T01:55:47;14.68;;;13.77;;
41221;SDS011;26952;42.884;23.918;2023-04-25T01:58:13;17.17;;;16.23;;
41221;SDS011;26952;42.884;23.918;2023-04-25T02:00:38;19.10;;;18.10;;
41221;SDS011;26952;42.884;23.918;2023-04-25T02:03:05;18.52;;;17.33;;
41221;SDS011;26952;42.884;23.918;2023-04-25T02:05:34;19.65;;;18.60;;
41221;SDS011;26952;42.884;23.918;2023-04-25T02:08:06;17.83;;;16.58;;
41221;SDS011;26952;42.884;23.918;2023-04-25T02:10:33;18.92;;;17.83;;
41221;SDS011;26952;42.884;23.918;2023-04-25T02:12:59;18.63;;;17.65;;
41221;SDS011;26952;42.884;23.918;2023-04-25T02:15:24;20.08;;;18.92;;
41221;SDS011;26952;42.884;23.918;2023-04-25T02:17:50;18.70;;;17.70;;
41221;SDS011;26952;42.884;23.918;2023-04-25T02:20:17;18.08;;;17.08;;
41221;SDS011;26952;42.884;23.918;2023-04-25T02:22:45;16.00;;;14.90;;
41221;SDS011;26952;42.884;23.918;2023-04-25T02:25:10;14.40;;;13.60;;
41221;SDS011;26952;42.884;23.918;2023-04-25T02:27:36;12.43;;;11.60;;
41221;SDS011;26952;42.884;23.918;2023-04-25T02:30:02;15.98;;;15.07;;
41221;SDS011;26952;42.884;23.918;2023-04-25T02:32:28;17.27;;;16.27;;
41221;SDS011;26952;42.884;23.918;2023-04-25T02:34:53;15.45;;;14.55;;
41221;SDS011;26952;42.884;23.918;2023-04-25T02:37:19;12.68;;;11.88;;
41221;SDS011;26952;42.884;23.918;2023-04-25T02:39:44;10.50;;;9.57;;
41221;SDS011;26952;42.884;23.918;2023-04-25T02:42:10;9.73;;;9.13;;
41221;SDS011;26952;42.884;23.918;2023-04-25T02:44:35;9.60;;;8.90;;
41221;SDS011;26952;42.884;23.918;2023-04-25T02:47:00;9.63;;;8.93;;
41221;SDS011;26952;42.884;23.918;2023-04-25T02:49:26;10.20;;;9.60;;
41221;SDS011;26952;42.884;23.918;2023-04-25T02:51:51;12.00;;;11.30;;
41221;SDS011;26952;42.884;23.918;2023-04-25T02:54:17;10.68;;;9.98;;
41221;SDS011;26952;42.884;23.918;2023-04-25T02:56:42;10.32;;;9.73;;
41221;SDS011;26952;42.884;23.918;2023-04-25T02:59:07;9.68;;;8.98;;
41221;SDS011;26952;42.884;23.918;2023-04-25T03:01:33;11.60;;;10.80;;
41221;SDS011;26952;42.884;23.918;2023-04-25T03:03:58;10.52;;;9.45;;
41221;SDS011;26952;42.884;23.918;2023-04-25T03:06:23;12.40;;;11.35;;
41221;SDS011;26952;42.884;23.918;2023-04-25T03:08:49;13.73;;;12.75;;
41221;SDS011;26952;42.884;23.918;2023-04-25T03:11:14;15.65;;;14.52;;
41221;SDS011;26952;42.884;23.918;2023-04-25T03:13:40;15.15;;;14.25;;
41221;SDS011;26952;42.884;23.918;2023-04-25T03:16:05;15.50;;;14.30;;
41221;SDS011;26952;42.884;23.918;2023-04-25T03:18:31;14.48;;;13.43;;
41221;SDS011;26952;42.884;23.918;2023-04-25T03:20:56;16.65;;;15.52;;
41221;SDS011;26952;42.884;23.918;2023-04-25T03:23:22;15.48;;;14.55;;
41221;SDS011;26952;42.884;23.918;2023-04-25T03:25:47;16.90;;;15.75;;
41221;SDS011;26952;42.884;23.918;2023-04-25T03:28:13;18.65;;;17.45;;
41221;SDS011;26952;42.884;23.918;2023-04-25T03:30:38;19.02;;;17.92;;
41221;SDS011;26952;42.884;23.918;2023-04-25T03:33:03;17.92;;;16.73;;
41221;SDS011;26952;42.884;23.918;2023-04-25T03:35:29;20.92;;;19.55;;
41221;SDS011;26952;42.884;23.918;2023-04-25T03:37:55;19.95;;;18.70;;
41221;SDS011;26952;42.884;23.918;2023-04-25T03:40:20;19.23;;;18.02;;
41221;SDS011;26952;42.884;23.918;2023-04-25T03:42:45;18.42;;;17.27;;
41221;SDS011;26952;42.884;23.918;2023-04-25T03:45:11;18.52;;;16.67;;
41221;SDS011;26952;42.884;23.918;2023-04-25T03:47:36;17.88;;;16.67;;
41221;SDS011;26952;42.884;23.918;2023-04-25T03:50:02;16.55;;;15.35;;
41221;SDS011;26952;42.884;23.918;2023-04-25T03:52:27;15.45;;;14.32;;
41221;SDS011;26952;42.884;23.918;2023-04-25T03:54:53;14.40;;;13.40;;
41221;SDS011;26952;42.884;23.918;2023-04-25T03:57:18;13.35;;;12.00;;
41221;SDS011;26952;42.884;23.918;2023-04-25T03:59:44;12.27;;;11.38;;
41221;SDS011;26952;42.884;23.918;2023-04-25T04:02:10;12.77;;;11.68;;
41221;SDS011;26952;42.884;23.918;2023-04-25T04:04:35;12.13;;;11.18;;
41221;SDS011;26952;42.884;23.918;2023-04-25T04:07:01;13.57;;;12.57;;
41221;SDS011;26952;42.884;23.918;2023-04-25T04:09:26;11.73;;;10.93;;
41221;SDS011;26952;42.884;23.918;2023-04-25T04:11:52;11.00;;;10.10;;
41221;SDS011;26952;42.884;23.918;2023-04-25T04:14:18;14.10;;;13.10;;
41221;SDS011;26952;42.884;23.918;2023-04-25T04:16:43;15.00;;;14.10;;
41221;SDS011;26952;42.884;23.918;2023-04-25T04:19:09;8.80;;;8.10;;
41221;SDS011;26952;42.884;23.918;2023-04-25T04:21:35;16.05;;;15.20;;
41221;SDS011;26952;42.884;23.918;2023-04-25T04:24:00;18.00;;;16.77;;
41221;SDS011;26952;42.884;23.918;2023-04-25T04:26:25;30.42;;;28.63;;
41221;SDS011;26952;42.884;23.918;2023-04-25T04:28:51;35.63;;;33.53;;
41221;SDS011;26952;42.884;23.918;2023-04-25T04:31:19;97.03;;;70.93;;
41221;SDS011;26952;42.884;23.918;2023-04-25T04:33:45;32.92;;;31.17;;
41221;SDS011;26952;42.884;23.918;2023-04-25T04:36:11;27.85;;;26.35;;
41221;SDS011;26952;42.884;23.918;2023-04-25T04:38:37;26.00;;;24.63;;
41221;SDS011;26952;42.884;23.918;2023-04-25T04:41:02;18.13;;;17.13;;
41221;SDS011;26952;42.884;23.918;2023-04-25T04:43:28;18.52;;;17.40;;
41221;SDS011;26952;42.884;23.918;2023-04-25T04:45:54;19.85;;;18.33;;
41221;SDS011;26952;42.884;23.918;2023-04-25T04:48:21;19.65;;;18.70;;
41221;SDS011;26952;42.884;23.918;2023-04-25T04:50:47;22.73;;;21.60;;
41221;SDS011;26952;42.884;23.918;2023-04-25T04:53:13;31.42;;;29.85;;
41221;SDS011;26952;42.884;23.918;2023-04-25T04:55:38;39.13;;;37.17;;
41221;SDS011;26952;42.884;23.918;2023-04-25T04:58:04;43.08;;;40.70;;
41221;SDS011;26952;42.884;23.918;2023-04-25T05:00:29;45.15;;;42.92;;
41221;SDS011;26952;42.884;23.918;2023-04-25T05:02:55;47.13;;;44.63;;
41221;SDS011;26952;42.884;23.918;2023-04-25T05:05:21;42.45;;;40.38;;
41221;SDS011;26952;42.884;23.918;2023-04-25T05:07:46;30.60;;;29.08;;
41221;SDS011;26952;42.884;23.918;2023-04-25T05:10:12;27.63;;;26.25;;
41221;SDS011;26952;42.884;23.918;2023-04-25T05:12:37;27.25;;;25.85;;
41221;SDS011;26952;42.884;23.918;2023-04-25T05:15:03;29.70;;;28.33;;
41221;SDS011;26952;42.884;23.918;2023-04-25T05:17:28;36.95;;;35.17;;
41221;SDS011;26952;42.884;23.918;2023-04-25T05:19:54;37.58;;;35.38;;
41221;SDS011;26952;42.884;23.918;2023-04-25T05:22:19;39.60;;;37.47;;
41221;SDS011;26952;42.884;23.918;2023-04-25T05:24:44;41.40;;;39.20;;
41221;SDS011;26952;42.884;23.918;2023-04-25T05:27:10;39.13;;;37.22;;
41221;SDS011;26952;42.884;23.918;2023-04-25T05:29:35;33.13;;;31.38;;
41221;SDS011;26952;42.884;23.918;2023-04-25T05:32:01;34.35;;;32.42;;
41221;SDS011;26952;42.884;23.918;2023-04-25T05:34:26;36.85;;;34.97;;
41221;SDS011;26952;42.884;23.918;2023-04-25T05:36:52;35.42;;;33.53;;
41221;SDS011;26952;42.884;23.918;2023-04-25T05:39:17;31.60;;;29.90;;
41221;SDS011;26952;42.884;23.918;2023-04-25T05:41:43;39.78;;;37.60;;
41221;SDS011;26952;42.884;23.918;2023-04-25T05:44:08;36.42;;;34.58;;
41221;SDS011;26952;42.884;23.918;2023-04-25T05:46:34;37.35;;;35.35;;
41221;SDS011;26952;42.884;23.918;2023-04-25T05:48:59;38.38;;;36.28;;
41221;SDS011;26952;42.884;23.918;2023-04-25T05:51:24;47.67;;;45.28;;
41221;SDS011;26952;42.884;23.918;2023-04-25T05:53:50;49.10;;;46.50;;
41221;SDS011;26952;42.884;23.918;2023-04-25T05:56:16;37.65;;;35.63;;
41221;SDS011;26952;42.884;23.918;2023-04-25T05:58:41;34.03;;;32.15;;
41221;SDS011;26952;42.884;23.918;2023-04-25T06:01:07;30.30;;;28.67;;
41221;SDS011;26952;42.884;23.918;2023-04-25T06:03:33;22.95;;;21.77;;
41221;SDS011;26952;42.884;23.918;2023-04-25T06:05:59;43.90;;;41.58;;
41221;SDS011;26952;42.884;23.918;2023-04-25T06:08:24;26.73;;;25.33;;
41221;SDS011;26952;42.884;23.918;2023-04-25T06:10:50;26.75;;;25.35;;
41221;SDS011;26952;42.884;23.918;2023-04-25T06:13:15;24.70;;;23.40;;
41221;SDS011;26952;42.884;23.918;2023-04-25T06:15:40;29.02;;;27.00;;
41221;SDS011;26952;42.884;23.918;2023-04-25T06:18:06;27.48;;;25.90;;
41221;SDS011;26952;42.884;23.918;2023-04-25T06:20:32;30.88;;;29.10;;
41221;SDS011;26952;42.884;23.918;2023-04-25T06:22:57;41.15;;;38.35;;
41221;SDS011;26952;42.884;23.918;2023-04-25T06:25:22;35.95;;;33.58;;
41221;SDS011;26952;42.884;23.918;2023-04-25T06:27:48;38.75;;;36.55;;
41221;SDS011;26952;42.884;23.918;2023-04-25T06:30:13;38.10;;;36.00;;
41221;SDS011;26952;42.884;23.918;2023-04-25T06:32:40;38.60;;;36.40;;
41221;SDS011;26952;42.884;23.918;2023-04-25T06:35:05;36.85;;;35.08;;
41221;SDS011;26952;42.884;23.918;2023-04-25T06:37:31;39.58;;;37.58;;
41221;SDS011;26952;42.884;23.918;2023-04-25T06:39:56;38.60;;;36.60;;
41221;SDS011;26952;42.884;23.918;2023-04-25T06:42:22;44.28;;;41.58;;
41221;SDS011;26952;42.884;23.918;2023-04-25T06:44:47;30.67;;;29.13;;
41221;SDS011;26952;42.884;23.918;2023-04-25T06:47:13;32.88;;;31.17;;
41221;SDS011;26952;42.884;23.918;2023-04-25T06:49:39;27.30;;;25.95;;
41221;SDS011;26952;42.884;23.918;2023-04-25T06:52:04;28.52;;;27.02;;
41221;SDS011;26952;42.884;23.918;2023-04-25T06:54:30;32.25;;;30.60;;
41221;SDS011;26952;42.884;23.918;2023-04-25T06:56:55;38.85;;;36.70;;
41221;SDS011;26952;42.884;23.918;2023-04-25T06:59:21;46.55;;;44.15;;
41221;SDS011;26952;42.884;23.918;2023-04-25T07:01:47;43.97;;;41.78;;
41221;SDS011;26952;42.884;23.918;2023-04-25T07:04:12;40.58;;;38.63;;
41221;SDS011;26952;42.884;23.918;2023-04-25T07:06:38;42.38;;;40.17;;
41221;SDS011;26952;42.884;23.918;2023-04-25T07:09:07;39.15;;;37.08;;
41221;SDS011;26952;42.884;23.918;2023-04-25T07:11:34;51.70;;;49.00;;
41221;SDS011;26952;42.884;23.918;2023-04-25T07:14:00;49.30;;;46.85;;
41221;SDS011;26952;42.884;23.918;2023-04-25T07:16:26;40.15;;;38.15;;
41221;SDS011;26952;42.884;23.918;2023-04-25T07:18:51;40.88;;;38.83;;
41221;SDS011;26952;42.884;23.918;2023-04-25T07:21:16;39.75;;;37.67;;
41221;SDS011;26952;42.884;23.918;2023-04-25T07:23:42;30.90;;;29.30;;
41221;SDS011;26952;42.884;23.918;2023-04-25T07:26:07;18.80;;;17.90;;
41221;SDS011;26952;42.884;23.918;2023-04-25T07:28:33;15.10;;;14.30;;
41221;SDS011;26952;42.884;23.918;2023-04-25T07:30:58;17.40;;;16.50;;
41221;SDS011;26952;42.884;23.918;2023-04-25T07:33:23;18.20;;;17.30;;
41221;SDS011;26952;42.884;23.918;2023-04-25T07:35:49;18.67;;;17.67;;
41221;SDS011;26952;42.884;23.918;2023-04-25T07:38:15;24.73;;;23.52;;
41221;SDS011;26952;42.884;23.918;2023-04-25T07:40:40;22.95;;;21.88;;
41221;SDS011;26952;42.884;23.918;2023-04-25T07:43:05;27.08;;;25.75;;
41221;SDS011;26952;42.884;23.918;2023-04-25T07:45:31;26.40;;;24.98;;
41221;SDS011;26952;42.884;23.918;2023-04-25T07:47:56;23.42;;;21.92;;
41221;SDS011;26952;42.884;23.918;2023-04-25T07:50:22;19.10;;;18.08;;
41221;SDS011;26952;42.884;23.918;2023-04-25T07:52:47;22.90;;;21.63;;
41221;SDS011;26952;42.884;23.918;2023-04-25T07:55:12;18.92;;;17.95;;
41221;SDS011;26952;42.884;23.918;2023-04-25T07:57:38;24.95;;;23.58;;
41221;SDS011;26952;42.884;23.918;2023-04-25T08:00:04;24.65;;;23.35;;
41221;SDS011;26952;42.884;23.918;2023-04-25T08:04:59;18.95;;;17.63;;
41221;SDS011;26952;42.884;23.918;2023-04-25T08:07:24;24.58;;;23.15;;
41221;SDS011;26952;42.884;23.918;2023-04-25T08:09:50;23.85;;;22.55;;
41221;SDS011;26952;42.884;23.918;2023-04-25T08:12:15;24.38;;;23.17;;
41221;SDS011;26952;42.884;23.918;2023-04-25T08:14:40;24.60;;;23.30;;
41221;SDS011;26952;42.884;23.918;2023-04-25T08:17:06;22.05;;;20.83;;
41221;SDS011;26952;42.884;23.918;2023-04-25T08:19:31;24.33;;;23.17;;
41221;SDS011;26952;42.884;23.918;2023-04-25T08:21:57;28.40;;;26.95;;
41221;SDS011;26952;42.884;23.918;2023-04-25T08:24:22;39.97;;;37.97;;
41221;SDS011;26952;42.884;23.918;2023-04-25T08:26:48;34.95;;;33.15;;
41221;SDS011;26952;42.884;23.918;2023-04-25T08:29:14;18.83;;;17.83;;
41221;SDS011;26952;42.884;23.918;2023-04-25T08:31:39;21.42;;;20.33;;
41221;SDS011;26952;42.884;23.918;2023-04-25T08:34:05;22.55;;;21.35;;
41221;SDS011;26952;42.884;23.918;2023-04-25T08:36:30;27.77;;;26.40;;
41221;SDS011;26952;42.884;23.918;2023-04-25T08:38:56;30.05;;;28.60;;
41221;SDS011;26952;42.884;23.918;2023-04-25T08:41:21;24.48;;;23.17;;
41221;SDS011;26952;42.884;23.918;2023-04-25T08:43:47;22.02;;;20.95;;
41221;SDS011;26952;42.884;23.918;2023-04-25T08:46:13;21.15;;;20.08;;
41221;SDS011;26952;42.884;23.918;2023-04-25T08:48:45;19.70;;;18.75;;
41221;SDS011;26952;42.884;23.918;2023-04-25T08:51:15;30.35;;;28.85;;
41221;SDS011;26952;42.884;23.918;2023-04-25T08:53:51;29.52;;;28.08;;
41221;SDS011;26952;42.884;23.918;2023-04-25T08:56:17;31.30;;;29.73;;
41221;SDS011;26952;42.884;23.918;2023-04-25T08:58:45;27.75;;;26.40;;
41221;SDS011;26952;42.884;23.918;2023-04-25T09:01:13;32.55;;;30.85;;
41221;SDS011;26952;42.884;23.918;2023-04-25T09:03:38;27.20;;;25.83;;
41221;SDS011;26952;42.884;23.918;2023-04-25T09:06:03;31.17;;;29.60;;
41221;SDS011;26952;42.884;23.918;2023-04-25T09:08:29;29.20;;;27.83;;
41221;SDS011;26952;42.884;23.918;2023-04-25T09:10:55;23.35;;;22.13;;
41221;SDS011;26952;42.884;23.918;2023-04-25T09:13:25;23.92;;;22.42;;
41221;SDS011;26952;42.884;23.918;2023-04-25T09:15:56;22.33;;;20.83;;
41221;SDS011;26952;42.884;23.918;2023-04-25T09:18:25;15.18;;;14.20;;
41221;SDS011;26952;42.884;23.918;2023-04-25T09:21:05;28.15;;;26.60;;
41221;SDS011;26952;42.884;23.918;2023-04-25T09:26:13;46.38;;;43.42;;
41221;SDS011;26952;42.884;23.918;2023-04-25T09:28:40;29.27;;;27.43;;
41221;SDS011;26952;42.884;23.918;2023-04-25T09:31:09;31.08;;;29.40;;
41221;SDS011;26952;42.884;23.918;2023-04-25T09:33:35;32.92;;;30.83;;
41221;SDS011;26952;42.884;23.918;2023-04-25T09:36:08;40.25;;;38.00;;
41221;SDS011;26952;42.884;23.918;2023-04-25T09:38:42;36.30;;;34.28;;
41221;SDS011;26952;42.884;23.918;2023-04-25T09:41:09;37.00;;;34.70;;
41221;SDS011;26952;42.884;23.918;2023-04-25T09:43:35;40.42;;;38.08;;
41221;SDS011;26952;42.884;23.918;2023-04-25T09:46:02;23.23;;;21.90;;
41221;SDS011;26952;42.884;23.918;2023-04-25T09:48:32;29.98;;;28.30;;
41221;SDS011;26952;42.884;23.918;2023-04-25T09:51:04;27.50;;;26.10;;
41221;SDS011;26952;42.884;23.918;2023-04-25T09:53:36;31.80;;;30.00;;
41221;SDS011;26952;42.884;23.918;2023-04-25T09:56:05;38.00;;;35.83;;
41221;SDS011;26952;42.884;23.918;2023-04-25T09:58:35;41.03;;;38.88;;
41221;SDS011;26952;42.884;23.918;2023-04-25T10:01:03;46.47;;;43.58;;
41221;SDS011;26952;42.884;23.918;2023-04-25T10:03:31;69.55;;;65.82;;
41221;SDS011;26952;42.884;23.918;2023-04-25T10:06:01;87.95;;;83.05;;
41221;SDS011;26952;42.884;23.918;2023-04-25T10:08:32;46.40;;;43.97;;
41221;SDS011;26952;42.884;23.918;2023-04-25T10:11:03;39.83;;;37.85;;
41221;SDS011;26952;42.884;23.918;2023-04-25T10:13:30;27.83;;;26.25;;
41221;SDS011;26952;42.884;23.918;2023-04-25T10:16:02;31.60;;;29.42;;
41221;SDS011;26952;42.884;23.918;2023-04-25T10:18:29;33.50;;;31.90;;
41221;SDS011;26952;42.884;23.918;2023-04-25T10:20:56;36.08;;;34.38;;
41221;SDS011;26952;42.884;23.918;2023-04-25T10:23:25;45.63;;;43.33;;
41221;SDS011;26952;42.884;23.918;2023-04-25T10:25:51;40.90;;;38.50;;
41221;SDS011;26952;42.884;23.918;2023-04-25T10:28:17;42.67;;;40.38;;
41221;SDS011;26952;42.884;23.918;2023-04-25T10:31:02;41.13;;;39.13;;
41221;SDS011;26952;42.884;23.918;2023-04-25T10:33:32;32.78;;;31.02;;
41221;SDS011;26952;42.884;23.918;2023-04-25T10:36:08;31.80;;;30.23;;
41221;SDS011;26952;42.884;23.918;2023-04-25T10:38:38;34.85;;;33.05;;
41221;SDS011;26952;42.884;23.918;2023-04-25T10:41:04;37.92;;;35.92;;
41221;SDS011;26952;42.884;23.918;2023-04-25T10:43:34;30.92;;;29.48;;
41221;SDS011;26952;42.884;23.918;2023-04-25T10:46:00;32.95;;;31.35;;
41221;SDS011;26952;42.884;23.918;2023-04-25T10:48:26;35.25;;;33.55;;
41221;SDS011;26952;42.884;23.918;2023-04-25T10:51:08;33.15;;;31.58;;
41221;SDS011;26952;42.884;23.918;2023-04-25T10:53:34;44.72;;;42.58;;
41221;SDS011;26952;42.884;23.918;2023-04-25T10:56:00;38.05;;;36.25;;
41221;SDS011;26952;42.884;23.918;2023-04-25T10:58:25;45.47;;;43.15;;
41221;SDS011;26952;42.884;23.918;2023-04-25T11:00:51;31.90;;;30.40;;
41221;SDS011;26952;42.884;23.918;2023-04-25T11:03:17;33.38;;;31.85;;
41221;SDS011;26952;42.884;23.918;2023-04-25T11:05:42;36.55;;;34.85;;
41221;SDS011;26952;42.884;23.918;2023-04-25T11:08:11;37.00;;;35.20;;
41221;SDS011;26952;42.884;23.918;2023-04-25T11:10:36;36.25;;;34.53;;
41221;SDS011;26952;42.884;23.918;2023-04-25T11:13:04;31.02;;;29.52;;
41221;SDS011;26952;42.884;23.918;2023-04-25T11:15:30;23.42;;;22.25;;
41221;SDS011;26952;42.884;23.918;2023-04-25T11:17:55;22.70;;;21.65;;
41221;SDS011;26952;42.884;23.918;2023-04-25T11:20:21;23.95;;;22.80;;
41221;SDS011;26952;42.884;23.918;2023-04-25T11:22:50;30.20;;;28.80;;
41221;SDS011;26952;42.884;23.918;2023-04-25T11:25:16;22.80;;;21.65;;
41221;SDS011;26952;42.884;23.918;2023-04-25T11:27:54;29.95;;;28.40;;
41221;SDS011;26952;42.884;23.918;2023-04-25T11:30:24;39.25;;;37.28;;
41221;SDS011;26952;42.884;23.918;2023-04-25T11:32:50;20.52;;;19.23;;
41221;SDS011;26952;42.884;23.918;2023-04-25T11:35:18;21.80;;;20.50;;
41221;SDS011;26952;42.884;23.918;2023-04-25T11:37:45;57.60;;;54.40;;
41221;SDS011;26952;42.884;23.918;2023-04-25T11:40:11;50.20;;;47.30;;
41221;SDS011;26952;42.884;23.918;2023-04-25T11:42:37;45.17;;;42.35;;
41221;SDS011;26952;42.884;23.918;2023-04-25T11:45:04;45.47;;;42.80;;
41221;SDS011;26952;42.884;23.918;2023-04-25T11:47:31;36.15;;;34.17;;
41221;SDS011;26952;42.884;23.918;2023-04-25T11:49:58;23.48;;;22.13;;
41221;SDS011;26952;42.884;23.918;2023-04-25T11:52:24;37.10;;;35.22;;
41221;SDS011;26952;42.884;23.918;2023-04-25T11:54:59;51.28;;;48.83;;
41221;SDS011;26952;42.884;23.918;2023-04-25T11:57:25;47.25;;;44.95;;
41221;SDS011;26952;42.884;23.918;2023-04-25T11:59:50;38.85;;;36.92;;
41221;SDS011;26952;42.884;23.918;2023-04-25T12:02:25;42.45;;;40.38;;
41221;SDS011;26952;42.884;23.918;2023-04-25T12:04:51;25.27;;;24.02;;
41221;SDS011;26952;42.884;23.918;2023-04-25T12:07:17;26.65;;;25.10;;
41221;SDS011;26952;42.884;23.918;2023-04-25T12:09:51;37.78;;;35.95;;
41221;SDS011;26952;42.884;23.918;2023-04-25T12:12:17;37.47;;;35.63;;
41221;SDS011;26952;42.884;23.918;2023-04-25T12:14:45;41.33;;;38.38;;
41221;SDS011;26952;42.884;23.918;2023-04-25T12:17:16;35.90;;;34.25;;
41221;SDS011;26952;42.884;23.918;2023-04-25T12:19:42;27.10;;;24.45;;
41221;SDS011;26952;42.884;23.918;2023-04-25T12:22:21;24.70;;;23.50;;
41221;SDS011;26952;42.884;23.918;2023-04-25T12:24:48;22.27;;;21.23;;
41221;SDS011;26952;42.884;23.918;2023-04-25T12:27:14;25.58;;;24.35;;
41221;SDS011;26952;42.884;23.918;2023-04-25T12:29:49;30.80;;;29.20;;
41221;SDS011;26952;42.884;23.918;2023-04-25T12:32:19;32.97;;;31.42;;
41221;SDS011;26952;42.884;23.918;2023-04-25T12:34:44;37.33;;;35.60;;
41221;SDS011;26952;42.884;23.918;2023-04-25T12:37:10;41.20;;;39.08;;
41221;SDS011;26952;42.884;23.918;2023-04-25T12:39:36;48.42;;;46.08;;
41221;SDS011;26952;42.884;23.918;2023-04-25T12:42:02;43.20;;;41.08;;
41221;SDS011;26952;42.884;23.918;2023-04-25T12:44:28;37.40;;;35.58;;
41221;SDS011;26952;42.884;23.918;2023-04-25T12:46:54;43.30;;;41.22;;
41221;SDS011;26952;42.884;23.918;2023-04-25T12:49:19;40.80;;;38.90;;
41221;SDS011;26952;42.884;23.918;2023-04-25T12:51:45;33.92;;;32.20;;
41221;SDS011;26952;42.884;23.918;2023-04-25T12:54:11;31.88;;;30.40;;
41221;SDS011;26952;42.884;23.918;2023-04-25T12:56:37;36.97;;;35.15;;
41221;SDS011;26952;42.884;23.918;2023-04-25T12:59:02;17.63;;;16.85;;
41221;SDS011;26952;42.884;23.918;2023-04-25T13:01:28;14.43;;;13.80;;
41221;SDS011;26952;42.884;23.918;2023-04-25T13:03:54;11.65;;;11.05;;
41221;SDS011;26952;42.884;23.918;2023-04-25T13:06:21;11.48;;;10.95;;
41221;SDS011;26952;42.884;23.918;2023-04-25T13:08:47;17.50;;;16.40;;
41221;SDS011;26952;42.884;23.918;2023-04-25T13:11:13;24.77;;;23.63;;
41221;SDS011;26952;42.884;23.918;2023-04-25T13:13:42;23.95;;;22.85;;
41221;SDS011;26952;42.884;23.918;2023-04-25T13:16:08;28.73;;;27.13;;
41221;SDS011;26952;42.884;23.918;2023-04-25T13:18:34;24.10;;;23.02;;
41221;SDS011;26952;42.884;23.918;2023-04-25T13:20:59;30.23;;;28.75;;
41221;SDS011;26952;42.884;23.918;2023-04-25T13:23:26;38.33;;;36.38;;
41221;SDS011;26952;42.884;23.918;2023-04-25T13:25:52;44.45;;;42.15;;
41221;SDS011;26952;42.884;23.918;2023-04-25T13:28:18;43.22;;;41.13;;
41221;SDS011;26952;42.884;23.918;2023-04-25T13:30:44;33.97;;;32.33;;
41221;SDS011;26952;42.884;23.918;2023-04-25T13:33:10;22.70;;;21.65;;
41221;SDS011;26952;42.884;23.918;2023-04-25T13:35:36;16.90;;;16.08;;
41221;SDS011;26952;42.884;23.918;2023-04-25T13:38:02;10.35;;;9.75;;
41221;SDS011;26952;42.884;23.918;2023-04-25T13:40:28;17.45;;;16.65;;
41221;SDS011;26952;42.884;23.918;2023-04-25T13:42:54;21.88;;;20.90;;
41221;SDS011;26952;42.884;23.918;2023-04-25T13:45:20;21.83;;;20.67;;
41221;SDS011;26952;42.884;23.918;2023-04-25T13:47:46;22.38;;;21.25;;
41221;SDS011;26952;42.884;23.918;2023-04-25T13:50:11;28.30;;;26.92;;
41221;SDS011;26952;42.884;23.918;2023-04-25T13:52:38;31.63;;;30.17;;
41221;SDS011;26952;42.884;23.918;2023-04-25T13:55:04;39.03;;;37.13;;
41221;SDS011;26952;42.884;23.918;2023-04-25T13:57:31;53.35;;;50.63;;
41221;SDS011;26952;42.884;23.918;2023-04-25T13:59:57;54.92;;;52.30;;
41221;SDS011;26952;42.884;23.918;2023-04-25T14:02:23;56.03;;;53.13;;
41221;SDS011;26952;42.884;23.918;2023-04-25T14:04:48;58.53;;;55.63;;
41221;SDS011;26952;42.884;23.918;2023-04-25T14:07:14;60.50;;;57.50;;
41221;SDS011;26952;42.884;23.918;2023-04-25T14:09:42;65.20;;;62.05;;